Time;durP1;ratioP1;P1;durP2;ratioP2;P2;SDS_P1;SDS_P2;PMS_P1;PMS_P2;Temp;Humidity;BMP_temperature;BMP_pressure;BME280_temperature;BME280_humidity;BME280_pressure;Samples;Min_cycle;Max_cycle;Signal;HPM_P1;HPM_P2
2021/05/08 00:00:56;;;;;;;12.23;10.20;;;5.60;99.90;;;;;;4956720;29;20610;-79
2021/05/08 00:03:23;;;;;;;10.55;8.20;;;5.60;99.90;;;;;;4954412;28;20267;-79
2021/05/08 00:05:49;;;;;;;10.98;7.70;;;5.50;99.90;;;;;;4940099;29;20216;-79
2021/05/08 00:08:16;;;;;;;9.00;8.10;;;5.40;99.90;;;;;;4945480;29;20319;-78
2021/05/08 00:10:43;;;;;;;11.80;9.50;;;5.30;99.90;;;;;;4943832;29;20718;-79
2021/05/08 00:13:09;;;;;;;12.27;10.60;;;5.30;99.90;;;;;;4916962;29;20299;-79
2021/05/08 00:15:36;;;;;;;13.60;10.82;;;5.40;99.90;;;;;;4941561;29;20189;-79
2021/05/08 00:18:02;;;;;;;12.02;10.60;;;5.50;99.90;;;;;;4939708;28;20236;-79
2021/05/08 00:20:29;;;;;;;13.38;11.32;;;5.50;99.90;;;;;;4951342;29;20208;-79
2021/05/08 00:22:56;;;;;;;12.60;10.98;;;5.50;99.90;;;;;;4936265;28;20599;-79
2021/05/08 00:25:22;;;;;;;12.95;11.50;;;5.70;99.90;;;;;;4955242;28;20211;-79
2021/05/08 00:27:49;;;;;;;12.55;9.77;;;5.80;99.90;;;;;;4936923;28;20588;-79
2021/05/08 00:30:16;;;;;;;11.57;10.38;;;5.90;99.90;;;;;;4940324;29;20632;-79
2021/05/08 00:32:43;;;;;;;9.90;8.90;;;5.90;99.90;;;;;;4954686;28;20223;-79
2021/05/08 00:35:09;;;;;;;11.20;9.40;;;5.90;99.90;;;;;;4930779;29;20200;-79
2021/05/08 00:37:36;;;;;;;10.23;9.23;;;5.90;99.90;;;;;;4918594;28;20227;-78
2021/05/08 00:40:04;;;;;;;11.60;9.43;;;5.80;99.90;;;;;;4953603;28;20211;-79
2021/05/08 00:42:31;;;;;;;8.60;7.45;;;5.70;99.90;;;;;;4938084;29;20248;-78
2021/05/08 00:44:58;;;;;;;8.80;7.90;;;5.60;99.90;;;;;;4931497;29;20211;-79
2021/05/08 00:47:24;;;;;;;11.15;8.98;;;5.50;99.90;;;;;;4935708;29;20209;-79
2021/05/08 00:49:51;;;;;;;10.15;9.15;;;5.40;99.90;;;;;;4937660;29;20252;-78
2021/05/08 00:52:18;;;;;;;11.30;9.27;;;5.20;99.90;;;;;;4937323;28;20355;-78
2021/05/08 00:54:45;;;;;;;9.07;8.25;;;5.20;99.90;;;;;;4934995;29;20240;-79
2021/05/08 00:57:12;;;;;;;9.57;8.65;;;5.10;99.90;;;;;;4916388;29;20213;-79
2021/05/08 00:59:39;;;;;;;10.45;9.45;;;5.00;99.90;;;;;;4943484;28;20228;-79
2021/05/08 01:02:06;;;;;;;12.45;8.55;;;4.90;99.90;;;;;;4937791;29;20661;-79
2021/05/08 01:04:33;;;;;;;10.15;9.05;;;4.80;99.90;;;;;;4940284;28;20208;-79
2021/05/08 01:07:01;;;;;;;9.73;8.82;;;4.70;99.90;;;;;;4935939;29;20627;-79
2021/05/08 01:09:29;;;;;;;9.57;8.32;;;4.70;99.90;;;;;;4953579;28;20227;-79
2021/05/08 01:11:56;;;;;;;8.80;7.88;;;4.70;99.90;;;;;;4942668;28;20197;-78
2021/05/08 01:14:23;;;;;;;9.80;8.55;;;4.70;99.90;;;;;;4937043;29;20307;-79
2021/05/08 01:16:51;;;;;;;10.63;8.82;;;4.60;99.90;;;;;;4954085;29;20221;-79
2021/05/08 01:19:19;;;;;;;9.55;8.35;;;4.60;99.90;;;;;;4935971;29;20220;-78
2021/05/08 01:21:46;;;;;;;11.18;9.32;;;4.60;99.90;;;;;;4919075;29;20283;-79
2021/05/08 01:24:13;;;;;;;11.18;9.00;;;4.60;99.90;;;;;;4931089;29;20208;-79
2021/05/08 01:26:39;;;;;;;9.68;8.68;;;4.60;99.90;;;;;;4937570;28;20300;-78
2021/05/08 01:29:07;;;;;;;11.57;9.10;;;4.60;99.90;;;;;;4951816;28;20213;-79
2021/05/08 01:31:33;;;;;;;9.25;8.00;;;4.60;99.90;;;;;;4945489;28;20187;-79
2021/05/08 01:34:03;;;;;;;14.35;9.43;;;4.60;99.90;;;;;;4951823;28;20307;-79
2021/05/08 01:36:32;;;;;;;9.32;8.30;;;4.50;99.90;;;;;;4946184;29;20215;-79
2021/05/08 01:39:00;;;;;;;9.70;8.40;;;4.50;99.90;;;;;;4941495;28;20255;-79
2021/05/08 01:41:27;;;;;;;12.43;9.70;;;4.60;99.90;;;;;;4933272;29;20204;-79
2021/05/08 01:43:54;;;;;;;8.80;7.60;;;4.50;99.90;;;;;;4945635;28;20307;-79
2021/05/08 01:46:21;;;;;;;10.13;8.85;;;4.50;99.90;;;;;;4949796;29;20204;-79
2021/05/08 01:48:48;;;;;;;9.40;8.50;;;4.40;99.90;;;;;;4948942;28;20228;-79
2021/05/08 01:51:15;;;;;;;9.13;7.80;;;4.40;99.90;;;;;;4952030;28;20180;-79
2021/05/08 01:53:42;;;;;;;8.27;7.45;;;4.30;99.90;;;;;;4942932;28;20221;-79
2021/05/08 01:56:10;;;;;;;10.15;8.75;;;4.30;99.90;;;;;;4930822;29;20216;-78
2021/05/08 01:58:37;;;;;;;8.80;7.93;;;4.20;99.90;;;;;;4919745;29;20224;-78
2021/05/08 02:01:05;;;;;;;8.38;7.55;;;4.20;99.90;;;;;;4953618;29;20207;-79
2021/05/08 02:03:39;;;;;;;8.93;7.93;;;4.20;99.90;;;;;;4945488;28;20224;-78
2021/05/08 02:06:08;;;;;;;8.20;7.40;;;4.20;99.90;;;;;;4930580;29;20285;-78
2021/05/08 02:08:42;;;;;;;8.90;8.00;;;4.10;99.90;;;;;;4932102;28;20216;-79
2021/05/08 02:11:19;;;;;;;9.80;7.50;;;4.10;99.90;;;;;;5102546;27;20593;-79
2021/05/08 02:13:46;;;;;;;7.05;6.35;;;4.10;99.90;;;;;;5076254;27;20578;-79
2021/05/08 02:16:12;;;;;;;7.57;6.78;;;4.00;99.90;;;;;;5061596;28;20232;-79
2021/05/08 02:18:40;;;;;;;7.70;6.95;;;4.00;99.90;;;;;;5062654;28;20215;-77
2021/05/08 02:21:09;;;;;;;7.28;6.57;;;4.00;99.90;;;;;;5041423;28;20201;-79
2021/05/08 02:23:43;;;;;;;7.30;6.30;;;3.90;99.90;;;;;;5037465;28;20219;-79
2021/05/08 02:26:10;;;;;;;8.05;7.00;;;3.90;99.90;;;;;;5047513;28;20196;-79
2021/05/08 02:28:37;;;;;;;7.45;6.65;;;3.80;99.90;;;;;;5018910;28;20617;-79
2021/05/08 02:31:03;;;;;;;7.68;6.82;;;3.70;99.90;;;;;;5048042;28;20299;-79
2021/05/08 02:33:30;;;;;;;8.13;6.40;;;3.70;99.90;;;;;;5049028;28;20287;-79
2021/05/08 02:35:58;;;;;;;10.43;7.80;;;3.80;99.90;;;;;;5061368;28;20220;-78
2021/05/08 02:38:24;;;;;;;6.43;5.82;;;3.80;99.90;;;;;;5061285;28;20223;-78
2021/05/08 02:40:51;;;;;;;10.23;6.55;;;3.70;99.90;;;;;;5046262;28;20450;-79
2021/05/08 02:43:18;;;;;;;7.90;6.90;;;3.60;99.90;;;;;;5050733;28;20219;-79
2021/05/08 02:45:52;;;;;;;7.70;5.72;;;3.70;99.90;;;;;;5044675;28;20205;-79
2021/05/08 02:48:18;;;;;;;9.00;7.25;;;3.50;99.90;;;;;;5046327;28;20319;-79
2021/05/08 02:50:51;;;;;;;7.65;6.43;;;3.50;99.90;;;;;;5046395;28;20212;-78
2021/05/08 02:53:18;;;;;;;8.38;6.40;;;3.50;99.90;;;;;;5040803;28;20650;-78
2021/05/08 02:55:46;;;;;;;10.55;7.28;;;3.50;99.90;;;;;;5041623;28;20233;-78
2021/05/08 02:58:13;;;;;;;8.25;7.15;;;3.50;99.90;;;;;;5047746;28;20749;-79
2021/05/08 03:00:42;;;;;;;8.30;7.40;;;3.40;99.90;;;;;;5038965;28;20293;-78
2021/05/08 03:03:12;;;;;;;7.95;7.03;;;3.50;99.90;;;;;;5051756;28;20225;-79
2021/05/08 03:05:41;;;;;;;8.82;7.03;;;3.50;99.90;;;;;;5062061;28;20270;-79
2021/05/08 03:08:15;;;;;;;8.63;7.40;;;3.70;99.90;;;;;;5035847;28;20216;-78
2021/05/08 03:10:43;;;;;;;7.72;6.55;;;3.80;99.90;;;;;;5044383;28;20209;-79
2021/05/08 03:13:10;;;;;;;10.18;6.80;;;3.80;99.90;;;;;;5046322;28;20212;-79
2021/05/08 03:15:38;;;;;;;7.80;5.97;;;4.00;99.90;;;;;;5027272;28;20189;-78
2021/05/08 03:18:07;;;;;;;7.43;6.57;;;4.10;99.90;;;;;;5038974;28;20221;-79
2021/05/08 03:20:34;;;;;;;8.02;6.63;;;4.20;99.90;;;;;;5020607;28;20197;-79
2021/05/08 03:23:01;;;;;;;7.07;6.38;;;4.20;99.90;;;;;;5030734;28;20232;-78
2021/05/08 03:25:27;;;;;;;7.72;6.10;;;4.30;99.90;;;;;;5029759;28;20190;-79
2021/05/08 03:27:54;;;;;;;8.02;6.13;;;4.40;99.90;;;;;;5028946;28;20252;-79
2021/05/08 03:30:24;;;;;;;6.95;6.25;;;4.40;99.90;;;;;;5013437;28;20661;-78
2021/05/08 03:32:54;;;;;;;6.78;5.40;;;4.40;99.90;;;;;;4996337;28;20219;-78
2021/05/08 03:35:21;;;;;;;7.63;6.20;;;4.40;99.90;;;;;;5012023;28;20258;-79
2021/05/08 03:37:48;;;;;;;6.47;5.82;;;4.40;99.90;;;;;;5002670;28;20232;-78
2021/05/08 03:40:17;;;;;;;7.05;5.85;;;4.40;99.90;;;;;;5013403;28;20214;-79
2021/05/08 03:42:44;;;;;;;6.80;5.25;;;4.40;99.90;;;;;;5012031;28;20511;-78
2021/05/08 03:45:12;;;;;;;8.65;6.20;;;4.40;99.90;;;;;;4996414;28;20190;-79
2021/05/08 03:47:38;;;;;;;7.10;6.40;;;4.50;99.90;;;;;;5005620;28;20712;-78
2021/05/08 03:50:06;;;;;;;5.63;5.00;;;4.40;99.90;;;;;;5008557;28;20628;-79
2021/05/08 03:52:33;;;;;;;9.50;6.03;;;4.40;99.90;;;;;;4997730;28;20191;-79
2021/05/08 03:55:00;;;;;;;5.97;5.32;;;4.30;99.90;;;;;;5022466;28;20580;-79
2021/05/08 03:57:26;;;;;;;7.85;6.15;;;4.30;99.90;;;;;;5001527;28;20568;-78
2021/05/08 03:59:55;;;;;;;6.75;6.07;;;4.30;99.90;;;;;;5013715;28;20217;-79
2021/05/08 04:02:21;;;;;;;6.53;5.93;;;4.30;99.90;;;;;;5023836;28;20243;-78
2021/05/08 04:04:47;;;;;;;7.32;6.32;;;4.30;99.90;;;;;;4997254;28;20218;-79
2021/05/08 04:07:14;;;;;;;6.05;5.45;;;4.30;99.90;;;;;;5002486;28;20210;-79
2021/05/08 04:09:43;;;;;;;6.00;5.20;;;4.20;99.90;;;;;;5008664;28;20226;-79
2021/05/08 04:12:09;;;;;;;6.13;5.53;;;4.20;99.90;;;;;;5002516;28;20202;-78
2021/05/08 04:14:39;;;;;;;6.75;5.80;;;4.20;99.90;;;;;;5004906;28;20691;-79
2021/05/08 04:17:05;;;;;;;6.18;4.85;;;4.30;99.90;;;;;;5011946;28;20209;-79
2021/05/08 04:19:32;;;;;;;10.80;5.78;;;4.30;99.90;;;;;;5027387;28;20615;-79
2021/05/08 04:21:58;;;;;;;8.10;5.60;;;4.30;99.90;;;;;;5013015;28;20542;-79
2021/05/08 04:24:25;;;;;;;6.40;5.80;;;4.30;99.90;;;;;;5006223;28;20218;-78
2021/05/08 04:26:51;;;;;;;5.93;5.18;;;4.30;99.90;;;;;;4997926;28;20202;-79
2021/05/08 04:29:19;;;;;;;8.23;5.40;;;4.30;99.90;;;;;;4993290;28;20571;-78
2021/05/08 04:31:51;;;;;;;5.65;5.15;;;4.30;99.90;;;;;;5018314;28;20190;-78
2021/05/08 04:34:17;;;;;;;6.57;5.82;;;4.40;99.90;;;;;;4995104;28;20240;-79
2021/05/08 04:36:44;;;;;;;6.63;5.93;;;4.40;99.90;;;;;;5011557;28;20680;-79
2021/05/08 04:39:10;;;;;;;6.15;5.55;;;4.40;99.90;;;;;;5010871;28;20296;-79
2021/05/08 04:41:37;;;;;;;7.65;6.32;;;4.40;99.90;;;;;;5012547;28;20228;-78
2021/05/08 04:44:03;;;;;;;6.05;5.45;;;4.40;99.90;;;;;;5006405;28;20214;-78
2021/05/08 04:46:32;;;;;;;6.45;5.88;;;4.40;99.90;;;;;;4996602;28;20687;-79
2021/05/08 04:48:59;;;;;;;8.57;6.85;;;4.40;99.90;;;;;;5009421;28;20214;-79
2021/05/08 04:51:26;;;;;;;7.50;5.75;;;4.50;99.90;;;;;;5009073;28;20234;-79
2021/05/08 04:53:53;;;;;;;9.25;6.70;;;4.60;99.90;;;;;;5026880;28;20742;-79
2021/05/08 04:56:22;;;;;;;8.63;7.10;;;4.70;99.90;;;;;;5010505;28;20232;-79
2021/05/08 04:58:49;;;;;;;8.10;6.43;;;4.70;99.90;;;;;;4992913;28;20234;-79
2021/05/08 05:01:16;;;;;;;7.78;6.50;;;4.80;99.90;;;;;;5023303;28;20190;-79
2021/05/08 05:03:43;;;;;;;7.88;5.65;;;4.80;99.90;;;;;;5005296;28;20225;-79
2021/05/08 05:06:09;;;;;;;7.95;5.85;;;4.90;99.90;;;;;;5012570;28;20228;-79
2021/05/08 05:08:36;;;;;;;7.05;6.05;;;5.10;99.90;;;;;;5025267;28;20240;-78
2021/05/08 05:11:03;;;;;;;6.75;5.70;;;5.20;99.90;;;;;;5006584;28;20272;-79
2021/05/08 05:13:32;;;;;;;7.80;6.38;;;5.30;99.90;;;;;;5008203;28;20263;-78
2021/05/08 05:15:59;;;;;;;7.07;6.38;;;5.40;99.90;;;;;;4993107;28;20202;-79
2021/05/08 05:18:29;;;;;;;6.18;5.45;;;5.50;99.90;;;;;;4991628;28;20218;-78
2021/05/08 05:20:55;;;;;;;7.13;5.25;;;5.50;99.90;;;;;;5004976;28;20271;-79
2021/05/08 05:23:22;;;;;;;5.20;4.65;;;5.60;99.90;;;;;;4996310;28;20767;-78
2021/05/08 05:25:50;;;;;;;9.00;5.00;;;5.70;99.90;;;;;;4995757;28;20241;-79
2021/05/08 05:28:22;;;;;;;5.97;5.30;;;5.80;99.90;;;;;;4995378;28;20705;-78
2021/05/08 05:30:50;;;;;;;8.00;5.78;;;5.90;99.90;;;;;;5005976;28;20210;-78
2021/05/08 05:33:16;;;;;;;7.40;5.20;;;6.00;99.90;;;;;;5005611;28;20277;-78
2021/05/08 05:35:47;;;;;;;5.22;4.53;;;6.10;99.90;;;;;;5000540;28;20221;-79
2021/05/08 05:38:17;;;;;;;7.82;5.93;;;6.20;99.90;;;;;;4999755;28;20214;-78
2021/05/08 05:40:44;;;;;;;8.48;5.10;;;6.30;99.90;;;;;;5011826;28;20673;-78
2021/05/08 05:43:12;;;;;;;8.82;4.95;;;6.50;99.90;;;;;;5010875;28;20301;-79
2021/05/08 05:45:38;;;;;;;5.30;4.47;;;6.60;99.90;;;;;;5011835;28;20192;-78
2021/05/08 05:48:06;;;;;;;6.18;5.68;;;6.70;99.90;;;;;;4996673;28;20261;-79
2021/05/08 05:50:40;;;;;;;5.32;4.80;;;6.80;99.90;;;;;;5013982;28;20237;-79
2021/05/08 05:53:07;;;;;;;5.55;4.85;;;7.00;99.90;;;;;;5010598;28;20496;-79
2021/05/08 05:55:41;;;;;;;7.60;5.80;;;7.10;99.90;;;;;;5010613;28;20683;-79
2021/05/08 05:58:07;;;;;;;5.55;5.05;;;7.10;99.90;;;;;;5010806;28;20284;-79
2021/05/08 06:00:34;;;;;;;5.85;5.22;;;7.40;99.90;;;;;;5009836;28;20232;-79
2021/05/08 06:03:03;;;;;;;7.00;4.95;;;7.60;99.90;;;;;;4994169;28;20711;-79
2021/05/08 06:05:29;;;;;;;5.80;4.60;;;7.80;99.90;;;;;;5001281;28;20665;-79
2021/05/08 06:07:59;;;;;;;6.03;4.95;;;8.00;99.90;;;;;;5025537;28;20300;-78
2021/05/08 06:10:28;;;;;;;4.70;3.38;;;8.30;99.90;;;;;;4996722;28;20252;-79
2021/05/08 06:12:54;;;;;;;5.15;4.10;;;8.70;97.80;;;;;;5009115;28;20241;-79
2021/05/08 06:15:21;;;;;;;8.02;3.95;;;9.10;91.90;;;;;;5010499;28;20192;-78
2021/05/08 06:17:51;;;;;;;5.57;3.70;;;9.40;90.80;;;;;;5017928;28;20226;-79
2021/05/08 06:20:18;;;;;;;5.60;3.33;;;9.60;88.30;;;;;;4994710;28;20548;-79
2021/05/08 06:22:44;;;;;;;5.05;3.55;;;9.90;84.30;;;;;;5007674;28;20718;-78
2021/05/08 06:25:12;;;;;;;6.75;4.38;;;10.10;80.00;;;;;;5001014;28;20188;-78
2021/05/08 06:27:42;;;;;;;6.07;3.75;;;10.40;80.30;;;;;;4992794;28;20626;-78
2021/05/08 06:30:09;;;;;;;4.97;3.20;;;10.60;77.70;;;;;;5020223;28;20299;-79
2021/05/08 06:32:36;;;;;;;4.70;3.75;;;10.60;76.30;;;;;;5007881;28;20225;-78
2021/05/08 06:35:02;;;;;;;6.00;3.63;;;10.50;74.00;;;;;;5007855;28;20195;-79
2021/05/08 06:37:30;;;;;;;4.65;3.80;;;10.50;74.80;;;;;;4998653;28;20570;-79
2021/05/08 06:39:57;;;;;;;4.18;3.35;;;10.40;74.60;;;;;;5012803;28;20227;-79
2021/05/08 06:42:24;;;;;;;5.40;3.75;;;10.30;74.10;;;;;;5014954;28;20278;-79
2021/05/08 06:44:54;;;;;;;5.93;4.38;;;10.40;75.30;;;;;;5002293;28;20228;-79
2021/05/08 06:47:21;;;;;;;5.50;3.83;;;10.60;73.00;;;;;;4993438;28;20243;-79
2021/05/08 06:49:49;;;;;;;4.40;3.65;;;10.60;73.10;;;;;;5019360;28;20231;-79
2021/05/08 06:52:16;;;;;;;5.80;4.05;;;10.70;73.20;;;;;;5008360;28;20530;-79
2021/05/08 06:54:42;;;;;;;5.07;3.90;;;10.70;72.60;;;;;;5003743;28;20211;-79
2021/05/08 06:57:09;;;;;;;5.40;3.92;;;10.80;71.70;;;;;;5022171;28;20281;-79
2021/05/08 06:59:35;;;;;;;4.97;3.65;;;10.80;71.30;;;;;;5008414;28;20257;-79
2021/05/08 07:02:04;;;;;;;4.30;3.78;;;11.00;68.80;;;;;;4999051;28;20347;-79
2021/05/08 07:04:33;;;;;;;6.25;3.78;;;10.90;70.00;;;;;;5019257;28;20230;-79
2021/05/08 07:07:00;;;;;;;3.83;3.40;;;10.90;69.80;;;;;;5045536;28;20210;-79
2021/05/08 07:09:26;;;;;;;5.35;4.10;;;10.90;72.10;;;;;;5007589;28;20245;-79
2021/05/08 07:11:53;;;;;;;6.82;4.20;;;10.80;70.50;;;;;;5005823;28;20198;-79
2021/05/08 07:14:22;;;;;;;5.38;4.18;;;10.70;71.10;;;;;;4998437;28;20230;-79
2021/05/08 07:16:54;;;;;;;5.55;3.13;;;10.70;71.60;;;;;;5013971;28;20706;-79
2021/05/08 07:19:21;;;;;;;8.63;3.90;;;10.80;71.10;;;;;;5038324;28;20576;-79
2021/05/08 07:21:47;;;;;;;5.47;3.63;;;10.80;71.00;;;;;;5006278;28;20549;-79
2021/05/08 07:24:17;;;;;;;5.07;3.42;;;10.80;71.30;;;;;;5007433;28;20694;-78
2021/05/08 07:26:44;;;;;;;6.28;3.80;;;10.70;71.70;;;;;;5004673;28;20208;-79
2021/05/08 07:29:10;;;;;;;4.20;3.78;;;10.80;71.10;;;;;;4994766;28;20232;-79
2021/05/08 07:31:37;;;;;;;7.80;4.05;;;10.90;71.30;;;;;;5027762;28;20221;-79
2021/05/08 07:34:03;;;;;;;5.65;3.15;;;10.90;71.30;;;;;;5012117;28;20693;-79
2021/05/08 07:36:30;;;;;;;6.78;4.45;;;10.90;71.00;;;;;;5012640;28;20697;-78
2021/05/08 07:38:57;;;;;;;7.95;3.80;;;11.00;70.40;;;;;;5013538;28;20271;-79
2021/05/08 07:41:24;;;;;;;8.05;4.80;;;11.10;70.90;;;;;;5003366;28;20226;-79
2021/05/08 07:43:50;;;;;;;6.00;3.33;;;11.20;71.00;;;;;;5000164;28;20232;-79
2021/05/08 07:46:17;;;;;;;5.20;3.47;;;11.20;70.50;;;;;;5009026;28;20570;-79
2021/05/08 07:48:44;;;;;;;5.78;3.17;;;11.30;69.90;;;;;;5012466;28;20461;-79
2021/05/08 07:51:10;;;;;;;4.30;3.90;;;11.20;69.60;;;;;;5005160;28;20205;-79
2021/05/08 07:53:36;;;;;;;6.15;3.90;;;11.40;68.10;;;;;;5028125;28;20218;-79
2021/05/08 07:56:08;;;;;;;4.35;3.08;;;11.40;67.40;;;;;;5032491;28;20677;-79
2021/05/08 07:58:34;;;;;;;5.57;2.50;;;11.50;67.10;;;;;;5013424;28;20700;-78
2021/05/08 08:01:01;;;;;;;4.03;3.10;;;11.60;67.30;;;;;;5005628;28;20438;-79
2021/05/08 08:03:28;;;;;;;5.10;3.33;;;11.60;64.80;;;;;;5003385;28;20471;-79
2021/05/08 08:05:56;;;;;;;4.25;3.53;;;11.60;66.60;;;;;;5012513;28;20563;-79
2021/05/08 08:08:28;;;;;;;7.37;3.40;;;11.70;65.30;;;;;;5006458;28;20221;-79
2021/05/08 08:10:55;;;;;;;5.43;3.33;;;11.70;64.10;;;;;;5020770;28;20469;-79
2021/05/08 08:13:22;;;;;;;5.33;3.20;;;11.80;65.20;;;;;;4996318;28;20817;-79
2021/05/08 08:15:49;;;;;;;4.87;3.20;;;11.90;64.50;;;;;;5000863;28;20461;-79
2021/05/08 08:18:15;;;;;;;4.67;2.60;;;12.00;64.80;;;;;;5000270;28;20542;-79
2021/05/08 08:20:42;;;;;;;6.97;3.77;;;12.10;65.50;;;;;;5017450;28;20845;-79
2021/05/08 08:23:08;;;;;;;4.17;2.70;;;12.10;64.60;;;;;;5006108;28;21001;-78
2021/05/08 08:25:35;;;;;;;4.63;3.50;;;12.10;65.10;;;;;;5024982;28;20452;-79
2021/05/08 08:28:02;;;;;;;4.43;2.87;;;12.10;64.60;;;;;;5009059;28;20520;-79
2021/05/08 08:30:28;;;;;;;5.23;3.50;;;12.10;64.60;;;;;;5013332;28;20528;-79
2021/05/08 08:32:54;;;;;;;4.30;3.17;;;12.10;65.20;;;;;;5011813;28;20499;-79
2021/05/08 08:35:24;;;;;;;3.73;2.33;;;12.10;66.00;;;;;;5018680;28;20464;-79
2021/05/08 08:37:52;;;;;;;5.90;2.47;;;12.20;64.90;;;;;;5001222;28;21013;-79
2021/05/08 08:40:21;;;;;;;10.60;3.33;;;12.20;64.90;;;;;;5048553;28;20424;-79
2021/05/08 08:42:48;;;;;;;4.90;3.57;;;12.20;63.80;;;;;;5038257;28;20515;-79
2021/05/08 08:45:17;;;;;;;7.30;2.97;;;12.30;64.80;;;;;;5018207;28;20522;-79
2021/05/08 08:47:43;;;;;;;5.40;3.53;;;12.30;65.50;;;;;;5010822;28;20444;-79
2021/05/08 08:50:12;;;;;;;6.00;2.90;;;12.30;64.20;;;;;;5024379;28;20461;-78
2021/05/08 08:52:39;;;;;;;4.70;3.03;;;12.50;63.60;;;;;;5012381;28;20437;-79
2021/05/08 08:55:08;;;;;;;4.10;2.63;;;12.50;63.10;;;;;;5028287;28;20504;-79
2021/05/08 08:57:40;;;;;;;5.97;2.43;;;12.50;63.70;;;;;;5011935;28;20886;-79
2021/05/08 09:00:13;;;;;;;5.23;2.73;;;12.50;63.30;;;;;;5013234;28;20439;-79
2021/05/08 09:02:45;;;;;;;4.40;2.60;;;12.70;61.80;;;;;;5005215;28;20492;-79
2021/05/08 09:05:20;;;;;;;8.83;3.30;;;12.80;61.60;;;;;;4995869;28;20436;-79
2021/05/08 09:07:48;;;;;;;6.37;3.20;;;12.90;64.10;;;;;;5012740;28;20461;-79
2021/05/08 09:10:26;;;;;;;3.40;2.70;;;13.10;60.60;;;;;;5031092;28;20471;-79
2021/05/08 09:12:54;;;;;;;3.70;2.43;;;13.20;60.60;;;;;;5031780;28;20957;-79
2021/05/08 09:15:37;;;;;;;5.90;2.73;;;13.20;63.10;;;;;;5033529;28;20432;-79
2021/05/08 09:18:30;;;;;;;3.63;2.60;;;13.30;61.80;;;;;;5042663;28;20519;-78
2021/05/08 09:21:00;;;;;;;5.73;2.83;;;13.30;62.40;;;;;;5026459;28;20445;-80
2021/05/08 09:23:40;;;;;;;4.10;2.03;;;13.40;61.40;;;;;;5012373;28;20461;-79
2021/05/08 09:26:14;;;;;;;5.70;2.73;;;13.50;61.30;;;;;;5011796;28;20452;-79
2021/05/08 09:28:50;;;;;;;5.03;2.63;;;13.80;59.30;;;;;;5043995;28;20469;-79
2021/05/08 09:31:17;;;;;;;4.60;2.23;;;14.00;58.20;;;;;;5011869;28;21036;-79
2021/05/08 09:33:53;;;;;;;4.70;2.37;;;14.10;57.10;;;;;;5026099;28;20518;-79
2021/05/08 09:36:20;;;;;;;3.50;2.37;;;14.10;57.00;;;;;;5011388;28;20468;-79
2021/05/08 09:38:46;;;;;;;3.33;2.20;;;14.30;58.10;;;;;;5020121;28;20487;-79
2021/05/08 09:41:15;;;;;;;3.47;2.00;;;14.40;56.50;;;;;;5028590;28;21013;-79
2021/05/08 09:43:43;;;;;;;3.47;2.43;;;14.40;58.60;;;;;;5021938;28;20843;-78
2021/05/08 09:46:29;;;;;;;2.70;2.23;;;14.50;56.70;;;;;;5042610;28;20456;-79
2021/05/08 09:49:12;;;;;;;2.77;2.57;;;14.50;54.10;;;;;;5045807;28;20834;-78
2021/05/08 09:51:39;;;;;;;3.20;2.30;;;14.40;53.60;;;;;;5031708;28;20463;-79
2021/05/08 09:54:13;;;;;;;8.03;2.07;;;14.50;55.00;;;;;;5030178;28;20875;-79
2021/05/08 09:56:43;;;;;;;4.80;2.10;;;14.40;53.30;;;;;;5031074;28;20928;-79
2021/05/08 09:59:41;;;;;;;3.87;2.17;;;14.40;54.00;;;;;;5046484;28;20452;-79
2021/05/08 10:02:08;;;;;;;4.00;2.30;;;14.50;52.50;;;;;;5062909;28;20437;-79
2021/05/08 10:04:45;;;;;;;3.10;1.90;;;14.40;52.20;;;;;;5029807;28;20538;-79
2021/05/08 10:07:15;;;;;;;3.83;2.87;;;14.30;53.60;;;;;;5046865;28;20897;-79
2021/05/08 10:09:43;;;;;;;3.87;2.40;;;14.40;54.30;;;;;;5028052;28;20468;-79
2021/05/08 10:12:11;;;;;;;2.10;1.90;;;14.40;52.90;;;;;;5031199;28;20472;-79
2021/05/08 10:14:41;;;;;;;4.73;2.60;;;14.40;53.00;;;;;;5029684;28;20556;-79
2021/05/08 10:17:21;;;;;;;2.80;2.00;;;14.30;53.70;;;;;;5030347;28;21142;-79
2021/05/08 10:19:50;;;;;;;4.43;2.00;;;14.30;53.90;;;;;;5032317;28;20460;-79
2021/05/08 10:22:18;;;;;;;4.30;2.17;;;14.40;53.30;;;;;;5030370;28;20433;-79
2021/05/08 10:24:47;;;;;;;5.00;2.17;;;14.50;53.50;;;;;;5008927;28;20492;-79
2021/05/08 10:27:15;;;;;;;3.10;2.20;;;14.50;54.10;;;;;;5025848;28;20469;-79
2021/05/08 10:29:51;;;;;;;4.23;2.53;;;14.50;52.90;;;;;;5008885;28;20468;-79
2021/05/08 10:32:22;;;;;;;3.13;2.83;;;14.40;53.30;;;;;;5013824;28;20419;-78
2021/05/08 10:34:52;;;;;;;2.50;1.33;;;14.30;53.60;;;;;;5014429;28;20511;-79
2021/05/08 10:37:20;;;;;;;2.33;2.13;;;14.20;54.20;;;;;;5029517;28;20871;-79
2021/05/08 10:40:13;;;;;;;3.90;2.37;;;14.20;54.70;;;;;;5045068;28;20503;-79
2021/05/08 10:42:45;;;;;;;2.57;1.93;;;14.10;55.60;;;;;;5046109;28;20942;-78
2021/05/08 10:45:17;;;;;;;4.40;2.50;;;14.10;56.40;;;;;;5050858;28;20936;-79
2021/05/08 10:47:58;;;;;;;3.23;1.97;;;14.00;56.70;;;;;;5033068;28;20954;-79
2021/05/08 10:50:36;;;;;;;2.70;1.90;;;14.00;56.60;;;;;;5014937;28;20464;-79
2021/05/08 10:53:05;;;;;;;3.77;1.73;;;14.10;56.50;;;;;;5012244;28;20773;-79
2021/05/08 10:55:52;;;;;;;2.30;1.73;;;14.10;57.10;;;;;;5029754;28;20428;-78
2021/05/08 10:58:22;;;;;;;1.60;1.40;;;14.00;58.20;;;;;;5010783;28;20453;-79
2021/05/08 11:00:56;;;;;;;2.07;1.97;;;13.90;58.10;;;;;;5030391;28;20863;-79
2021/05/08 11:03:52;;;;;;;1.73;1.47;;;13.80;61.60;;;;;;5012988;28;20474;-79
2021/05/08 11:06:24;;;;;;;3.17;1.50;;;13.90;64.50;;;;;;5028189;28;20474;-79
2021/05/08 11:08:51;;;;;;;1.93;1.33;;;13.80;64.20;;;;;;5043227;28;20467;-80
2021/05/08 11:11:22;;;;;;;1.73;1.63;;;13.90;60.40;;;;;;5033957;28;20566;-79
2021/05/08 11:13:55;;;;;;;1.57;1.23;;;13.90;59.10;;;;;;5033183;28;20463;-79
2021/05/08 11:16:27;;;;;;;1.70;1.50;;;13.90;58.80;;;;;;5047747;28;20474;-79
2021/05/08 11:18:58;;;;;;;2.83;1.70;;;14.00;58.90;;;;;;5032237;28;20460;-79
2021/05/08 11:21:28;;;;;;;2.70;1.30;;;14.00;60.20;;;;;;5034265;28;20475;-79
2021/05/08 11:24:02;;;;;;;2.60;1.73;;;14.10;58.40;;;;;;5021091;28;20552;-79
2021/05/08 11:26:29;;;;;;;1.60;1.20;;;14.00;58.50;;;;;;5044680;28;20464;-79
2021/05/08 11:29:00;;;;;;;2.10;1.50;;;14.10;58.90;;;;;;4996668;28;20464;-79
2021/05/08 11:31:35;;;;;;;2.63;1.73;;;14.20;58.50;;;;;;5030076;28;20479;-79
2021/05/08 11:34:08;;;;;;;1.53;1.43;;;14.20;58.40;;;;;;5012112;28;21017;-79
2021/05/08 11:36:57;;;;;;;1.50;1.40;;;14.20;58.80;;;;;;5029229;28;20826;-79
2021/05/08 11:39:28;;;;;;;2.70;1.70;;;14.20;58.40;;;;;;5013386;28;20476;-79
2021/05/08 11:41:59;;;;;;;3.50;1.30;;;14.10;58.30;;;;;;5028536;28;20504;-79
2021/05/08 11:44:32;;;;;;;2.07;1.30;;;14.20;58.40;;;;;;5009834;28;20907;-79
2021/05/08 11:47:30;;;;;;;1.90;1.23;;;14.20;58.40;;;;;;5028405;28;20784;-79
2021/05/08 11:50:07;;;;;;;3.07;1.90;;;14.10;58.30;;;;;;5032769;28;20467;-80
2021/05/08 11:52:49;;;;;;;2.07;1.97;;;14.10;60.50;;;;;;5046537;28;20424;-79
2021/05/08 11:55:31;;;;;;;2.60;1.57;;;14.10;60.60;;;;;;5049191;28;20454;-79
2021/05/08 11:58:01;;;;;;;2.40;2.20;;;14.00;59.40;;;;;;5028684;28;20468;-79
2021/05/08 12:00:33;;;;;;;1.87;1.70;;;13.90;61.00;;;;;;5043258;28;20486;-80
2021/05/08 12:03:13;;;;;;;2.13;1.80;;;13.90;61.20;;;;;;5011385;28;20552;-79
2021/05/08 12:05:49;;;;;;;2.30;1.87;;;14.00;64.70;;;;;;5007874;28;20471;-79
2021/05/08 12:08:20;;;;;;;2.20;2.00;;;13.90;66.10;;;;;;5005570;28;20473;-79
2021/05/08 12:10:53;;;;;;;2.17;2.00;;;13.90;67.50;;;;;;5012049;28;20467;-79
2021/05/08 12:13:27;;;;;;;2.33;2.10;;;13.90;66.50;;;;;;5005183;28;20565;-79
2021/05/08 12:16:03;;;;;;;2.33;2.13;;;13.80;66.30;;;;;;5007167;28;20531;-79
2021/05/08 12:18:32;;;;;;;4.80;2.70;;;13.80;65.80;;;;;;5016587;28;20552;-79
2021/05/08 12:21:01;;;;;;;2.27;2.03;;;14.00;63.20;;;;;;5022425;23;21000;-74
2021/05/08 12:23:29;;;;;;;1.97;1.83;;;14.00;65.00;;;;;;5017692;28;20580;-74
2021/05/08 12:26:07;;;;;;;2.43;2.03;;;14.10;64.50;;;;;;5022616;28;20486;-76
2021/05/08 12:28:43;;;;;;;3.07;2.40;;;14.10;63.00;;;;;;5010985;28;21044;-76
2021/05/08 12:31:33;;;;;;;4.13;1.90;;;14.10;63.60;;;;;;5026927;28;20458;-77
2021/05/08 12:34:12;;;;;;;2.77;2.10;;;14.00;64.50;;;;;;4995131;28;20495;-75
2021/05/08 12:37:05;;;;;;;3.07;1.83;;;14.00;67.10;;;;;;5012094;28;20742;-74
2021/05/08 12:39:32;;;;;;;2.20;2.00;;;14.10;70.10;;;;;;5024138;28;20477;-74
2021/05/08 12:42:00;;;;;;;4.27;2.57;;;14.30;66.10;;;;;;5010340;28;21007;-76
2021/05/08 12:44:39;;;;;;;3.60;1.87;;;14.30;64.60;;;;;;5012123;28;20465;-74
2021/05/08 12:47:21;;;;;;;2.73;1.57;;;14.30;64.60;;;;;;5011645;28;20658;-76
2021/05/08 12:50:11;;;;;;;3.43;2.63;;;14.50;63.40;;;;;;5027724;28;20473;-75
2021/05/08 12:53:03;;;;;;;2.77;1.57;;;14.50;62.80;;;;;;5009888;28;20878;-74
2021/05/08 12:55:33;;;;;;;3.17;1.50;;;14.60;63.10;;;;;;5003397;28;20612;-75
2021/05/08 12:58:12;;;;;;;2.40;1.47;;;14.50;63.10;;;;;;4976439;28;20449;-76
2021/05/08 13:00:43;;;;;;;2.07;1.40;;;14.60;63.70;;;;;;5023620;28;20448;-74
2021/05/08 13:03:46;;;;;;;1.57;1.40;;;14.60;63.60;;;;;;5007242;28;20462;-75